Time;durP1;ratioP1;P1;durP2;ratioP2;P2;SDS_P1;SDS_P2;PMS_P1;PMS_P2;Temp;Humidity;BMP_temperature;BMP_pressure;BME280_temperature;BME280_humidity;BME280_pressure;Samples;Min_cycle;Max_cycle;Signal;HPM_P1;HPM_P2
2023/12/16 00:00:15;;;;;;;13.32;4.90;;;6.40;99.90;;;;;;4981521;28;20034;-53
2023/12/16 00:02:41;;;;;;;17.00;4.90;;;6.40;99.90;;;;;;4983793;28;20631;-50
2023/12/16 00:05:08;;;;;;;12.30;5.70;;;6.40;99.90;;;;;;4978182;28;20109;-53
2023/12/16 00:07:34;;;;;;;14.45;5.85;;;6.40;99.90;;;;;;4978030;28;20080;-50
2023/12/16 00:10:00;;;;;;;20.15;5.07;;;6.40;99.90;;;;;;4981815;28;20447;-52
2023/12/16 00:12:25;;;;;;;11.23;4.90;;;6.40;99.90;;;;;;4983279;28;20026;-54
2023/12/16 00:14:51;;;;;;;13.85;5.88;;;6.30;99.90;;;;;;4979930;28;20026;-53
2023/12/16 00:17:17;;;;;;;20.05;5.78;;;6.40;99.90;;;;;;4978127;28;20027;-54
2023/12/16 00:19:42;;;;;;;14.50;5.18;;;6.30;99.90;;;;;;4982254;28;20022;-50
2023/12/16 00:22:08;;;;;;;14.27;4.75;;;6.30;99.90;;;;;;4979506;28;20031;-55
2023/12/16 00:24:33;;;;;;;13.20;5.60;;;6.30;99.90;;;;;;4983546;28;20041;-55
2023/12/16 00:26:59;;;;;;;13.35;5.30;;;6.30;99.90;;;;;;4977972;28;20050;-57
2023/12/16 00:29:25;;;;;;;19.15;5.43;;;6.30;99.90;;;;;;4983691;28;20045;-50
2023/12/16 00:31:51;;;;;;;16.08;5.53;;;6.30;99.90;;;;;;4982234;28;20848;-55
2023/12/16 00:34:16;;;;;;;13.90;5.22;;;6.30;99.90;;;;;;4977824;28;20033;-54
2023/12/16 00:36:42;;;;;;;19.63;5.13;;;6.30;99.90;;;;;;4981265;28;20077;-54
2023/12/16 00:39:09;;;;;;;19.45;5.75;;;6.30;99.90;;;;;;4979165;28;20027;-54
2023/12/16 00:41:34;;;;;;;11.75;5.72;;;6.30;99.90;;;;;;4983243;28;20026;-55
2023/12/16 00:44:00;;;;;;;10.27;4.57;;;6.20;99.90;;;;;;4979613;28;20018;-54
2023/12/16 00:46:26;;;;;;;14.82;5.20;;;6.30;99.90;;;;;;4984229;28;20036;-57
2023/12/16 00:48:51;;;;;;;14.32;5.13;;;6.20;99.90;;;;;;4977346;28;20622;-55
2023/12/16 00:51:19;;;;;;;15.93;5.40;;;6.20;99.90;;;;;;4984108;28;20030;-51
2023/12/16 00:53:45;;;;;;;16.33;5.10;;;6.20;99.90;;;;;;4980797;28;20039;-54
2023/12/16 00:56:11;;;;;;;20.95;4.75;;;6.20;99.90;;;;;;4978673;28;20045;-56
2023/12/16 00:58:36;;;;;;;17.45;4.70;;;6.20;99.90;;;;;;4982738;28;20030;-54
2023/12/16 01:01:02;;;;;;;17.10;5.75;;;6.20;99.90;;;;;;4981479;28;20050;-53
2023/12/16 01:03:27;;;;;;;17.02;4.47;;;6.20;99.90;;;;;;4983814;28;20042;-57
2023/12/16 01:05:53;;;;;;;13.55;4.80;;;6.20;99.90;;;;;;4981754;28;20395;-52
2023/12/16 01:08:19;;;;;;;9.82;4.78;;;6.20;99.90;;;;;;4977289;28;20421;-53
2023/12/16 01:10:44;;;;;;;15.82;4.57;;;6.10;99.90;;;;;;4979499;28;20122;-54
2023/12/16 01:13:10;;;;;;;10.90;4.63;;;6.10;99.90;;;;;;4979199;28;20030;-55
2023/12/16 01:15:36;;;;;;;14.15;4.15;;;6.20;99.90;;;;;;4980926;28;20426;-51
2023/12/16 01:18:02;;;;;;;13.80;4.90;;;6.10;99.90;;;;;;4972984;28;20025;-51
2023/12/16 01:20:27;;;;;;;20.92;4.90;;;6.10;99.90;;;;;;4983320;28;20134;-50
2023/12/16 01:22:53;;;;;;;8.88;4.38;;;6.10;99.90;;;;;;4977333;28;20019;-50
2023/12/16 01:25:19;;;;;;;16.48;4.70;;;6.10;99.90;;;;;;4978729;28;20042;-51
2023/12/16 01:27:44;;;;;;;12.90;4.35;;;6.10;99.90;;;;;;4977479;28;20026;-53
2023/12/16 01:30:10;;;;;;;17.30;4.82;;;6.10;99.90;;;;;;4972283;28;20049;-52
2023/12/16 01:32:35;;;;;;;12.15;3.72;;;6.10;99.90;;;;;;4980208;28;20058;-55
2023/12/16 01:35:01;;;;;;;10.98;3.72;;;6.10;99.90;;;;;;4977019;28;20026;-52
2023/12/16 01:37:26;;;;;;;14.55;4.07;;;6.00;99.90;;;;;;4973790;28;20026;-56
2023/12/16 01:39:52;;;;;;;12.88;3.85;;;6.00;99.90;;;;;;4977621;28;20077;-52
2023/12/16 01:42:18;;;;;;;13.07;3.85;;;6.00;99.90;;;;;;4979380;28;20151;-49
2023/12/16 01:44:43;;;;;;;11.23;3.95;;;6.00;99.90;;;;;;4981559;28;20053;-52
2023/12/16 01:47:10;;;;;;;12.02;4.63;;;5.90;99.90;;;;;;4978889;28;20046;-50
2023/12/16 01:49:37;;;;;;;10.63;3.67;;;5.90;99.90;;;;;;4983141;28;20113;-57
2023/12/16 01:52:04;;;;;;;16.17;3.97;;;5.90;99.90;;;;;;4978354;28;20513;-55
2023/12/16 01:54:31;;;;;;;14.88;3.65;;;5.90;99.90;;;;;;4978607;28;20033;-49
2023/12/16 01:56:59;;;;;;;14.32;3.40;;;5.90;99.90;;;;;;4973911;28;20054;-56
2023/12/16 01:59:25;;;;;;;13.15;3.72;;;5.90;99.90;;;;;;4977867;28;20068;-51
2023/12/16 02:01:51;;;;;;;7.30;3.35;;;5.80;99.90;;;;;;4975343;28;20402;-54
2023/12/16 02:04:19;;;;;;;10.68;3.65;;;5.80;99.90;;;;;;4979803;28;20031;-51
2023/12/16 02:06:44;;;;;;;11.35;3.30;;;5.80;99.90;;;;;;4974888;28;20038;-49
2023/12/16 02:09:13;;;;;;;14.02;3.97;;;5.70;99.90;;;;;;4978583;28;20042;-49
2023/12/16 02:11:38;;;;;;;11.20;3.55;;;5.70;99.90;;;;;;4976335;28;20509;-52
2023/12/16 02:14:04;;;;;;;9.35;3.63;;;5.70;99.90;;;;;;4990042;28;20027;-50
2023/12/16 02:16:29;;;;;;;12.02;3.67;;;5.60;99.90;;;;;;4980162;28;20027;-52
2023/12/16 02:18:55;;;;;;;8.32;3.17;;;5.60;99.90;;;;;;4974514;28;20030;-52
2023/12/16 02:21:20;;;;;;;9.05;3.20;;;5.50;99.90;;;;;;4977731;28;20568;-57
2023/12/16 02:23:46;;;;;;;16.13;3.58;;;5.50;99.90;;;;;;4977376;28;20557;-56
2023/12/16 02:26:12;;;;;;;7.45;2.97;;;5.50;99.90;;;;;;4979068;28;20508;-53
2023/12/16 02:28:38;;;;;;;11.13;3.42;;;5.40;99.90;;;;;;4973200;28;20109;-54
2023/12/16 02:31:04;;;;;;;7.00;2.45;;;5.40;99.90;;;;;;4979345;28;20039;-51
2023/12/16 02:33:30;;;;;;;6.82;2.85;;;5.40;99.90;;;;;;4979040;28;20031;-54
2023/12/16 02:35:55;;;;;;;10.75;3.70;;;5.40;99.90;;;;;;4978878;28;20041;-52
2023/12/16 02:38:21;;;;;;;12.90;2.95;;;5.40;99.90;;;;;;4976159;28;20026;-54
2023/12/16 02:40:47;;;;;;;10.15;3.20;;;5.40;99.90;;;;;;4979519;28;20058;-49
2023/12/16 02:43:13;;;;;;;8.77;2.95;;;5.30;99.90;;;;;;4979349;28;20486;-51
2023/12/16 02:45:39;;;;;;;12.40;3.35;;;5.30;99.90;;;;;;4975832;28;20038;-51
2023/12/16 02:48:05;;;;;;;6.82;3.03;;;5.30;99.90;;;;;;4977902;28;20030;-54
2023/12/16 02:50:30;;;;;;;7.95;3.05;;;5.40;99.90;;;;;;4973682;28;20038;-56
2023/12/16 02:52:56;;;;;;;8.43;3.22;;;5.40;99.90;;;;;;4975289;28;20328;-55
2023/12/16 02:55:21;;;;;;;9.85;2.90;;;5.40;99.90;;;;;;4978912;28;20030;-57
2023/12/16 02:57:47;;;;;;;8.95;2.28;;;5.40;99.90;;;;;;4979189;28;20034;-52
2023/12/16 03:00:13;;;;;;;9.10;2.60;;;5.50;99.90;;;;;;4975639;28;20030;-54
2023/12/16 03:02:38;;;;;;;9.60;3.05;;;5.40;99.90;;;;;;4975867;28;20038;-53
2023/12/16 03:05:04;;;;;;;8.75;3.20;;;5.40;99.90;;;;;;4977150;28;20037;-54
2023/12/16 03:07:30;;;;;;;10.13;2.72;;;5.50;99.90;;;;;;4979363;28;20017;-52
2023/12/16 03:09:56;;;;;;;11.20;3.20;;;5.50;99.90;;;;;;4976345;28;20023;-59
2023/12/16 03:12:21;;;;;;;11.70;3.15;;;5.50;99.90;;;;;;4982460;28;20039;-51
2023/12/16 03:14:47;;;;;;;8.68;2.95;;;5.50;99.90;;;;;;4974240;28;20030;-55
2023/12/16 03:17:14;;;;;;;8.82;2.80;;;5.50;99.90;;;;;;4978050;28;20029;-49
2023/12/16 03:19:40;;;;;;;6.32;2.95;;;5.50;99.90;;;;;;4976572;28;20019;-51
2023/12/16 03:22:05;;;;;;;9.27;2.63;;;5.50;99.90;;;;;;4974441;28;20054;-50
2023/12/16 03:24:31;;;;;;;9.02;2.60;;;5.40;99.90;;;;;;4980324;28;20030;-53
2023/12/16 03:26:56;;;;;;;6.20;2.65;;;5.40;99.90;;;;;;4973411;28;20054;-53
2023/12/16 03:29:22;;;;;;;9.38;2.67;;;5.40;99.90;;;;;;4980733;28;20030;-51
2023/12/16 03:31:48;;;;;;;7.13;2.30;;;5.40;99.90;;;;;;4977701;28;20789;-53
2023/12/16 03:34:13;;;;;;;10.93;2.75;;;5.40;99.90;;;;;;4977547;28;20488;-52
2023/12/16 03:36:39;;;;;;;10.90;2.72;;;5.40;99.90;;;;;;4975380;28;20030;-51
2023/12/16 03:39:04;;;;;;;4.85;2.28;;;5.50;99.90;;;;;;4973479;28;20031;-49
2023/12/16 03:41:30;;;;;;;9.70;3.05;;;5.50;99.90;;;;;;4975834;28;20038;-49
2023/12/16 03:43:55;;;;;;;3.42;2.33;;;5.50;99.90;;;;;;4976514;28;20037;-50
2023/12/16 03:46:21;;;;;;;8.90;2.90;;;5.50;99.90;;;;;;4977833;28;20049;-48
2023/12/16 03:48:47;;;;;;;7.70;2.80;;;5.60;99.90;;;;;;4977852;28;20026;-51
2023/12/16 03:51:13;;;;;;;4.70;1.75;;;5.60;99.90;;;;;;4978496;28;20030;-48
2023/12/16 03:53:39;;;;;;;7.82;2.70;;;5.60;99.90;;;;;;4979438;28;20054;-49
2023/12/16 03:56:05;;;;;;;8.23;2.35;;;5.60;99.90;;;;;;4977431;28;20061;-51
2023/12/16 03:58:30;;;;;;;6.97;2.45;;;5.70;99.90;;;;;;4974883;28;20696;-50
2023/12/16 04:00:56;;;;;;;9.70;2.38;;;5.70;99.90;;;;;;4976803;28;20034;-48
2023/12/16 04:03:21;;;;;;;11.38;3.25;;;5.70;99.90;;;;;;4980859;28;20125;-47
2023/12/16 04:05:47;;;;;;;11.07;3.88;;;5.70;99.90;;;;;;4978346;28;20093;-55
2023/12/16 04:08:12;;;;;;;12.30;3.15;;;5.80;99.90;;;;;;4978368;28;20122;-52
2023/12/16 04:10:38;;;;;;;8.90;2.75;;;5.80;99.90;;;;;;4979420;28;20030;-49
2023/12/16 04:13:04;;;;;;;4.90;2.47;;;5.80;99.90;;;;;;4979317;28;20030;-49
2023/12/16 04:15:29;;;;;;;6.75;2.08;;;5.80;99.90;;;;;;4983840;28;20538;-48
2023/12/16 04:17:55;;;;;;;10.77;3.50;;;5.80;99.90;;;;;;4980382;28;20502;-52
2023/12/16 04:20:21;;;;;;;10.40;3.17;;;5.80;99.90;;;;;;4983022;28;20514;-47
2023/12/16 04:22:46;;;;;;;5.80;2.30;;;5.80;99.90;;;;;;4983216;28;20041;-49
2023/12/16 04:25:12;;;;;;;5.82;2.08;;;5.90;99.90;;;;;;4981580;28;20713;-50
2023/12/16 04:27:37;;;;;;;6.80;2.53;;;5.80;99.90;;;;;;4977185;28;20554;-53
2023/12/16 04:30:04;;;;;;;11.02;2.60;;;5.90;99.90;;;;;;4980508;28;20037;-49
2023/12/16 04:32:30;;;;;;;11.23;2.95;;;5.80;99.90;;;;;;4983520;28;20030;-51
2023/12/16 04:34:55;;;;;;;8.02;2.45;;;5.80;99.90;;;;;;4981123;28;20118;-51
2023/12/16 04:37:21;;;;;;;5.93;2.50;;;5.80;99.90;;;;;;5029356;22;20120;-58
2023/12/16 04:39:47;;;;;;;8.30;3.25;;;5.80;99.90;;;;;;5007600;28;20142;-57
2023/12/16 04:42:12;;;;;;;8.85;2.47;;;5.70;99.90;;;;;;5006615;28;20065;-59
2023/12/16 04:44:38;;;;;;;11.45;3.55;;;5.70;99.90;;;;;;5006227;28;20034;-60
2023/12/16 04:47:04;;;;;;;8.00;2.45;;;5.70;99.90;;;;;;5010840;28;20026;-59
2023/12/16 04:49:30;;;;;;;9.25;2.60;;;5.70;99.90;;;;;;5005787;28;20026;-57
2023/12/16 04:51:55;;;;;;;11.82;3.60;;;5.70;99.90;;;;;;5008043;28;20633;-61
2023/12/16 04:54:21;;;;;;;10.40;3.60;;;5.60;99.90;;;;;;5019530;28;20022;-59
2023/12/16 04:56:47;;;;;;;6.20;3.30;;;5.60;99.90;;;;;;5008692;28;20064;-58
2023/12/16 04:59:14;;;;;;;11.00;3.10;;;5.60;99.90;;;;;;4998080;28;20033;-60
2023/12/16 05:01:39;;;;;;;5.72;2.75;;;5.60;99.90;;;;;;5005295;28;20109;-60
2023/12/16 05:04:05;;;;;;;7.88;2.72;;;5.60;99.90;;;;;;5001710;28;20112;-58
2023/12/16 05:06:31;;;;;;;7.82;2.45;;;5.60;99.90;;;;;;5003403;28;20053;-59
2023/12/16 05:08:56;;;;;;;9.95;2.75;;;5.60;99.90;;;;;;5000597;28;20052;-58
2023/12/16 05:11:23;;;;;;;9.57;2.90;;;5.60;99.90;;;;;;5004751;28;20087;-57
2023/12/16 05:13:49;;;;;;;7.18;2.42;;;5.60;99.90;;;;;;5006782;28;20026;-58
2023/12/16 05:16:21;;;;;;;9.38;2.40;;;5.60;99.90;;;;;;5006397;28;20090;-60
2023/12/16 05:18:47;;;;;;;11.40;3.10;;;5.70;99.90;;;;;;5009867;28;21479;-59
2023/12/16 05:21:12;;;;;;;8.13;2.97;;;5.70;99.90;;;;;;5005840;28;20121;-59
2023/12/16 05:23:38;;;;;;;10.73;2.90;;;5.70;99.90;;;;;;5008621;28;20019;-58
2023/12/16 05:26:04;;;;;;;9.10;2.95;;;5.70;99.90;;;;;;5011935;28;20021;-61
2023/12/16 05:28:32;;;;;;;9.75;3.08;;;5.80;99.90;;;;;;5002471;28;20084;-60
2023/12/16 05:30:58;;;;;;;12.60;3.60;;;5.80;99.90;;;;;;5018975;28;20033;-57
2023/12/16 05:33:23;;;;;;;12.20;2.78;;;5.80;99.90;;;;;;5004443;28;20030;-59
2023/12/16 05:35:49;;;;;;;8.07;2.90;;;5.80;99.90;;;;;;4998633;28;20390;-60
2023/12/16 05:38:14;;;;;;;8.85;2.55;;;5.80;99.90;;;;;;5003384;28;20525;-58
2023/12/16 05:40:40;;;;;;;6.60;2.30;;;5.80;99.90;;;;;;5001486;28;20033;-59
2023/12/16 05:43:05;;;;;;;5.63;2.72;;;5.80;99.90;;;;;;5006166;28;20084;-61
2023/12/16 05:45:31;;;;;;;5.28;2.25;;;5.80;99.90;;;;;;5001233;28;20034;-60
2023/12/16 05:47:56;;;;;;;5.35;2.20;;;5.80;99.90;;;;;;5008750;28;20091;-60
2023/12/16 05:50:22;;;;;;;3.33;2.20;;;5.80;99.90;;;;;;5007768;28;20425;-59
2023/12/16 05:52:47;;;;;;;5.93;2.13;;;5.80;99.90;;;;;;5008622;28;20449;-60
2023/12/16 05:55:13;;;;;;;7.22;2.03;;;5.80;99.90;;;;;;5005466;28;20018;-59
2023/12/16 05:57:39;;;;;;;11.63;2.00;;;5.80;99.90;;;;;;5006439;28;20183;-58
2023/12/16 06:00:05;;;;;;;4.90;2.13;;;5.80;99.90;;;;;;5006520;28;20026;-59
2023/12/16 06:02:30;;;;;;;10.93;2.78;;;5.80;99.90;;;;;;5005436;28;20057;-60
2023/12/16 06:04:56;;;;;;;6.22;2.03;;;5.80;99.90;;;;;;5007525;28;20053;-58
2023/12/16 06:07:21;;;;;;;4.40;2.38;;;5.80;99.90;;;;;;5004685;28;20030;-59
2023/12/16 06:09:47;;;;;;;6.00;2.38;;;5.80;99.90;;;;;;5005648;28;20502;-58
2023/12/16 06:12:13;;;;;;;8.50;2.20;;;5.80;99.90;;;;;;5006188;28;20041;-60
2023/12/16 06:14:38;;;;;;;8.90;2.15;;;5.80;99.90;;;;;;5005581;28;20022;-59
2023/12/16 06:17:04;;;;;;;5.45;1.90;;;5.80;99.90;;;;;;5005447;28;20072;-61
2023/12/16 06:19:29;;;;;;;8.90;2.25;;;5.80;99.90;;;;;;5005000;28;20026;-59
2023/12/16 06:21:55;;;;;;;3.70;1.85;;;5.80;99.90;;;;;;5007538;28;20028;-56
2023/12/16 06:24:20;;;;;;;6.50;1.30;;;5.80;99.90;;;;;;5001889;28;20034;-59
2023/12/16 06:26:47;;;;;;;7.68;1.65;;;5.80;99.90;;;;;;5006982;28;20502;-59
2023/12/16 06:29:12;;;;;;;7.10;2.15;;;5.80;99.90;;;;;;5004634;28;20613;-59
2023/12/16 06:31:38;;;;;;;3.53;1.83;;;5.80;99.90;;;;;;5008541;28;20034;-58
2023/12/16 06:34:03;;;;;;;7.18;2.00;;;5.70;99.90;;;;;;5004445;28;20063;-57
2023/12/16 06:36:29;;;;;;;6.70;1.63;;;5.70;99.90;;;;;;5004618;28;20034;-59
2023/12/16 06:38:55;;;;;;;5.57;2.15;;;5.70;99.90;;;;;;5004915;28;20069;-59
2023/12/16 06:41:20;;;;;;;6.60;1.45;;;5.70;99.90;;;;;;5005456;28;20030;-58
2023/12/16 06:43:46;;;;;;;6.47;1.80;;;5.80;99.90;;;;;;5000218;28;20026;-58
2023/12/16 06:46:12;;;;;;;6.95;2.17;;;5.80;99.90;;;;;;5007616;28;20065;-57
2023/12/16 06:48:37;;;;;;;6.53;1.83;;;5.80;99.90;;;;;;5006354;28;20029;-55
2023/12/16 06:51:03;;;;;;;6.10;1.80;;;5.80;99.90;;;;;;5007454;28;20045;-58
2023/12/16 06:53:30;;;;;;;6.65;1.80;;;5.80;99.90;;;;;;5007959;28;20033;-54
2023/12/16 06:55:56;;;;;;;4.88;1.90;;;5.80;99.90;;;;;;5002429;28;20037;-58
2023/12/16 06:58:22;;;;;;;3.95;1.67;;;5.80;99.90;;;;;;5000260;28;20022;-56
2023/12/16 07:00:47;;;;;;;7.53;2.33;;;5.80;99.90;;;;;;5004160;28;20062;-60
2023/12/16 07:03:13;;;;;;;8.75;1.92;;;5.80;99.90;;;;;;5007137;28;20104;-57
2023/12/16 07:05:39;;;;;;;5.00;1.80;;;5.90;99.90;;;;;;5002008;28;20030;-58
2023/12/16 07:08:04;;;;;;;4.70;1.98;;;5.80;99.90;;;;;;5004228;28;20057;-56
2023/12/16 07:10:30;;;;;;;5.22;1.95;;;5.90;99.90;;;;;;5004654;28;20570;-58
2023/12/16 07:12:55;;;;;;;4.97;1.63;;;5.90;99.90;;;;;;5006636;28;20042;-57
2023/12/16 07:15:21;;;;;;;8.85;2.33;;;5.90;99.90;;;;;;5004075;28;20076;-59
2023/12/16 07:17:46;;;;;;;6.88;2.42;;;5.90;99.90;;;;;;5002858;28;20034;-58
2023/12/16 07:20:13;;;;;;;5.72;1.73;;;5.90;99.90;;;;;;5009069;28;20079;-56
2023/12/16 07:22:39;;;;;;;7.55;2.00;;;5.90;99.90;;;;;;5003522;28;20178;-59
2023/12/16 07:25:05;;;;;;;8.07;1.80;;;5.90;99.90;;;;;;5001721;28;20026;-59
2023/12/16 07:27:30;;;;;;;11.43;1.98;;;5.90;99.90;;;;;;5004227;28;20525;-56
2023/12/16 07:29:56;;;;;;;6.65;2.22;;;6.00;99.90;;;;;;5002945;28;20037;-58
2023/12/16 07:32:23;;;;;;;5.68;1.85;;;6.00;99.90;;;;;;4999161;28;20041;-56
2023/12/16 07:34:50;;;;;;;7.07;2.38;;;6.00;99.90;;;;;;5006011;28;20029;-58
2023/12/16 07:37:15;;;;;;;11.05;2.10;;;6.10;99.90;;;;;;5007798;28;20036;-60
2023/12/16 07:39:41;;;;;;;4.65;1.90;;;6.10;99.90;;;;;;5008691;28;20409;-61
2023/12/16 07:42:07;;;;;;;9.73;2.47;;;6.10;99.90;;;;;;5010430;28;20064;-57
2023/12/16 07:44:32;;;;;;;6.38;2.38;;;6.10;99.90;;;;;;5023183;28;20033;-60
2023/12/16 07:46:58;;;;;;;9.23;3.00;;;6.10;99.90;;;;;;5004438;28;20567;-58
2023/12/16 07:49:25;;;;;;;10.43;3.72;;;6.20;99.90;;;;;;5008824;28;20829;-58
2023/12/16 07:51:54;;;;;;;6.32;2.55;;;6.20;99.90;;;;;;5022414;28;20033;-60
2023/12/16 07:54:22;;;;;;;3.53;2.28;;;6.30;99.90;;;;;;5003798;28;20061;-59
2023/12/16 07:56:48;;;;;;;9.60;2.65;;;6.30;99.90;;;;;;5010218;28;20041;-58
2023/12/16 07:59:13;;;;;;;6.07;2.05;;;6.30;99.90;;;;;;5008138;28;20029;-58
2023/12/16 08:01:39;;;;;;;11.85;3.00;;;6.40;99.90;;;;;;5010346;28;20064;-59
2023/12/16 08:04:05;;;;;;;10.82;2.22;;;6.30;99.90;;;;;;5007708;28;20121;-56
2023/12/16 08:06:31;;;;;;;11.82;2.28;;;6.40;99.90;;;;;;5009592;28;20029;-57
2023/12/16 08:08:56;;;;;;;6.70;2.75;;;6.40;99.90;;;;;;5007883;28;20586;-57
2023/12/16 08:11:22;;;;;;;11.55;3.65;;;6.40;99.90;;;;;;5007135;28;20540;-58
2023/12/16 08:13:47;;;;;;;12.45;4.22;;;6.40;99.90;;;;;;5008415;28;20470;-59
2023/12/16 08:16:13;;;;;;;11.90;3.50;;;6.40;99.90;;;;;;5007194;28;20798;-55
2023/12/16 08:18:39;;;;;;;9.90;2.92;;;6.40;99.90;;;;;;5006675;28;21615;-59
2023/12/16 08:21:04;;;;;;;11.98;3.72;;;6.40;99.90;;;;;;5007407;28;20540;-60
2023/12/16 08:23:30;;;;;;;9.20;2.97;;;6.40;99.90;;;;;;5004204;28;20825;-60
2023/12/16 08:25:55;;;;;;;8.82;3.13;;;6.40;99.90;;;;;;5008857;28;20034;-56
2023/12/16 08:28:23;;;;;;;8.07;2.50;;;6.40;99.90;;;;;;5008023;28;20117;-58
2023/12/16 08:30:50;;;;;;;7.97;2.80;;;6.30;99.90;;;;;;5023563;28;20030;-57
2023/12/16 08:33:16;;;;;;;6.97;3.22;;;6.40;99.90;;;;;;5023745;28;20060;-60
2023/12/16 08:35:44;;;;;;;15.27;4.07;;;6.40;99.90;;;;;;5003917;28;20544;-60
2023/12/16 08:38:10;;;;;;;17.60;4.13;;;6.40;99.90;;;;;;5004572;28;20084;-55
2023/12/16 08:40:36;;;;;;;10.38;3.33;;;6.40;99.90;;;;;;5006906;28;20428;-58
2023/12/16 08:43:01;;;;;;;9.80;3.53;;;6.40;99.90;;;;;;5004104;28;20541;-57
2023/12/16 08:45:27;;;;;;;6.85;2.88;;;6.40;99.90;;;;;;5007112;28;20048;-57
2023/12/16 08:47:52;;;;;;;12.07;3.33;;;6.40;99.90;;;;;;5006662;28;20127;-59
2023/12/16 08:50:18;;;;;;;7.57;3.45;;;6.40;99.90;;;;;;5007501;28;20032;-58
2023/12/16 08:52:44;;;;;;;9.52;3.67;;;6.40;99.90;;;;;;5004010;28;20034;-57
2023/12/16 08:55:09;;;;;;;11.32;3.80;;;6.40;99.90;;;;;;5005971;28;20037;-58
2023/12/16 08:57:35;;;;;;;7.80;3.83;;;6.40;99.90;;;;;;5005288;28;20742;-58
2023/12/16 09:00:00;;;;;;;10.30;4.03;;;6.40;99.90;;;;;;5004409;28;20026;-58
2023/12/16 09:02:26;;;;;;;10.65;4.43;;;6.40;99.90;;;;;;5006953;28;20130;-58
2023/12/16 09:04:51;;;;;;;9.55;4.60;;;6.40;99.90;;;;;;5008563;28;20021;-60
2023/12/16 09:07:17;;;;;;;11.05;4.05;;;6.40;99.90;;;;;;5007330;28;20467;-57
2023/12/16 09:09:44;;;;;;;7.88;4.65;;;6.40;99.90;;;;;;5007290;28;20545;-63
2023/12/16 09:12:10;;;;;;;17.63;5.95;;;6.40;99.90;;;;;;5004996;28;20431;-60
2023/12/16 09:14:37;;;;;;;12.90;6.55;;;6.40;99.90;;;;;;5009931;28;20525;-60
2023/12/16 09:17:03;;;;;;;15.55;4.80;;;6.40;99.90;;;;;;5007144;28;20029;-57
2023/12/16 09:19:28;;;;;;;12.13;6.05;;;6.40;99.90;;;;;;5006466;28;20030;-60
2023/12/16 09:21:54;;;;;;;9.35;5.40;;;6.40;99.90;;;;;;5006875;28;20393;-58
2023/12/16 09:24:20;;;;;;;14.07;6.25;;;6.40;99.90;;;;;;4994337;28;20033;-59
2023/12/16 09:26:46;;;;;;;17.95;8.15;;;6.40;99.90;;;;;;5008328;28;20514;-59
2023/12/16 09:29:12;;;;;;;16.60;6.38;;;6.40;99.90;;;;;;5006768;28;20032;-60
2023/12/16 09:31:38;;;;;;;14.20;7.07;;;6.40;99.90;;;;;;5006201;28;20636;-59
2023/12/16 09:34:04;;;;;;;11.70;6.63;;;6.40;99.90;;;;;;5006227;28;20029;-61
2023/12/16 09:36:30;;;;;;;10.73;5.32;;;6.40;99.90;;;;;;5005936;28;20413;-58
2023/12/16 09:38:57;;;;;;;12.10;5.55;;;6.50;99.90;;;;;;5019385;28;20338;-59
2023/12/16 09:41:30;;;;;;;12.60;4.88;;;6.50;99.90;;;;;;5006052;28;20076;-58
2023/12/16 09:43:58;;;;;;;11.80;5.95;;;6.50;99.90;;;;;;5007049;28;20026;-60
2023/12/16 09:46:29;;;;;;;10.68;5.22;;;6.50;99.90;;;;;;5005535;28;20175;-59
2023/12/16 09:48:55;;;;;;;11.80;5.85;;;6.50;99.90;;;;;;5004817;28;20108;-58
2023/12/16 09:51:22;;;;;;;12.73;6.32;;;6.40;99.90;;;;;;5006010;28;20707;-57
2023/12/16 09:53:49;;;;;;;9.40;6.00;;;6.40;99.90;;;;;;5007176;28;20026;-60
2023/12/16 09:56:15;;;;;;;13.73;6.25;;;6.50;99.90;;;;;;5007948;28;20018;-60
2023/12/16 09:58:43;;;;;;;18.27;6.13;;;6.50;99.90;;;;;;5006941;28;20030;-56
2023/12/16 10:01:09;;;;;;;15.02;6.63;;;6.50;99.90;;;;;;5000979;28;20041;-60
2023/12/16 10:03:36;;;;;;;10.60;6.35;;;6.50;99.90;;;;;;5006568;28;20128;-57
2023/12/16 10:06:03;;;;;;;8.45;6.28;;;6.50;99.90;;;;;;5005625;28;20025;-59
2023/12/16 10:08:28;;;;;;;10.05;6.80;;;6.40;99.90;;;;;;4999238;28;20049;-59
2023/12/16 10:11:02;;;;;;;15.57;6.30;;;6.40;99.90;;;;;;5006604;28;20026;-60
2023/12/16 10:13:29;;;;;;;11.50;7.43;;;6.50;99.90;;;;;;5005737;28;20022;-59
2023/12/16 10:15:54;;;;;;;13.43;7.68;;;6.40;99.90;;;;;;5018121;28;20049;-60
2023/12/16 10:18:20;;;;;;;11.65;7.47;;;6.50;99.90;;;;;;5004071;28;20065;-59
2023/12/16 10:20:45;;;;;;;13.65;7.97;;;6.50;99.90;;;;;;5005202;28;20113;-58
2023/12/16 10:23:12;;;;;;;16.77;8.65;;;6.50;99.90;;;;;;5004727;28;20034;-60
2023/12/16 10:25:40;;;;;;;18.55;13.23;;;6.50;99.90;;;;;;5005502;28;20029;-57
2023/12/16 10:28:05;;;;;;;17.00;10.52;;;6.50;99.90;;;;;;5005116;28;20030;-58
2023/12/16 10:30:32;;;;;;;21.48;10.00;;;6.50;99.90;;;;;;5006309;28;20026;-59
2023/12/16 10:33:02;;;;;;;26.33;13.75;;;6.50;99.90;;;;;;5005272;28;20026;-60
2023/12/16 10:35:28;;;;;;;22.83;11.32;;;6.50;99.90;;;;;;5003088;28;20498;-58
2023/12/16 10:37:53;;;;;;;20.17;9.77;;;6.50;99.90;;;;;;5006674;28;20038;-59
2023/12/16 10:40:19;;;;;;;14.82;10.10;;;6.50;99.90;;;;;;5007742;28;20809;-59
2023/12/16 10:42:44;;;;;;;23.65;10.73;;;6.50;99.90;;;;;;5005801;28;20455;-57
2023/12/16 10:45:12;;;;;;;18.60;12.55;;;6.50;99.90;;;;;;5007368;28;20116;-59
2023/12/16 10:47:38;;;;;;;19.35;11.63;;;6.60;99.90;;;;;;5005040;28;20030;-59
2023/12/16 10:50:06;;;;;;;17.70;10.40;;;6.60;99.90;;;;;;5015818;28;20061;-56
2023/12/16 10:52:54;;;;;;;16.27;9.68;;;6.60;99.90;;;;;;5004388;28;20105;-61
2023/12/16 10:55:31;;;;;;;33.10;20.98;;;6.60;99.90;;;;;;5006864;28;20264;-58
2023/12/16 10:58:27;;;;;;;46.55;33.45;;;6.60;99.90;;;;;;5004522;28;20026;-58
2023/12/16 11:00:55;;;;;;;16.23;10.93;;;6.70;99.90;;;;;;5004329;28;20125;-59
2023/12/16 11:03:28;;;;;;;14.45;8.98;;;6.70;99.90;;;;;;5002000;28;20120;-60
2023/12/16 11:06:05;;;;;;;15.70;9.40;;;6.70;99.90;;;;;;5006575;28;20045;-61
2023/12/16 11:08:32;;;;;;;16.38;9.23;;;6.70;99.90;;;;;;5004811;28;20355;-61
2023/12/16 11:10:58;;;;;;;20.98;8.98;;;6.80;99.90;;;;;;5007057;28;20034;-62
2023/12/16 11:13:24;;;;;;;24.50;8.98;;;6.70;99.90;;;;;;5008724;28;20026;-62
2023/12/16 11:15:58;;;;;;;16.27;8.52;;;6.80;99.90;;;;;;5006524;28;20494;-60
2023/12/16 11:18:26;;;;;;;16.05;8.15;;;6.80;99.90;;;;;;5006222;28;20096;-60
2023/12/16 11:20:56;;;;;;;10.75;8.00;;;6.80;99.90;;;;;;5024034;28;20061;-61
2023/12/16 11:23:23;;;;;;;20.25;8.68;;;6.80;99.90;;;;;;5023545;28;20025;-59
2023/12/16 11:25:52;;;;;;;15.27;9.20;;;6.80;99.90;;;;;;5024129;28;20034;-60
2023/12/16 11:28:18;;;;;;;11.43;7.57;;;6.80;99.90;;;;;;5009093;28;20444;-57
2023/12/16 11:30:44;;;;;;;17.77;8.52;;;6.90;99.90;;;;;;5008181;28;20047;-59
2023/12/16 11:33:11;;;;;;;12.32;8.70;;;6.80;99.90;;;;;;5007663;28;20080;-58
2023/12/16 11:35:40;;;;;;;17.30;8.15;;;6.80;99.90;;;;;;5023554;28;20057;-58
2023/12/16 11:38:09;;;;;;;11.50;7.38;;;6.80;99.90;;;;;;5005137;28;20046;-56
2023/12/16 11:40:42;;;;;;;14.98;7.90;;;6.80;99.90;;;;;;5008959;28;20133;-59
2023/12/16 11:43:09;;;;;;;17.42;8.65;;;6.80;99.90;;;;;;5006182;28;20022;-58
2023/12/16 11:45:43;;;;;;;13.52;8.20;;;6.90;99.90;;;;;;5007968;28;20018;-59
2023/12/16 11:48:16;;;;;;;14.18;8.38;;;6.90;99.90;;;;;;5004253;28;20030;-61
2023/12/16 11:50:44;;;;;;;17.05;8.98;;;6.90;99.90;;;;;;5011021;28;20048;-59
2023/12/16 11:53:11;;;;;;;14.73;9.40;;;6.90;99.90;;;;;;5006451;28;20025;-60
2023/12/16 11:55:37;;;;;;;14.23;7.80;;;6.90;99.90;;;;;;5007730;28;20026;-59
2023/12/16 11:58:04;;;;;;;15.02;7.47;;;7.00;99.90;;;;;;5007812;28;20064;-58
2023/12/16 12:00:30;;;;;;;13.80;7.53;;;7.00;99.90;;;;;;5003570;28;20026;-60
2023/12/16 12:02:59;;;;;;;14.15;7.93;;;6.90;99.90;;;;;;5005443;28;20120;-56
2023/12/16 12:05:26;;;;;;;15.95;7.93;;;7.00;99.90;;;;;;5002365;28;20057;-60
2023/12/16 12:07:52;;;;;;;19.05;8.60;;;7.00;99.90;;;;;;5008264;28;20093;-56
2023/12/16 12:10:17;;;;;;;13.02;8.20;;;7.00;99.90;;;;;;5007760;28;20026;-62
2023/12/16 12:12:43;;;;;;;13.02;8.23;;;7.00;99.90;;;;;;5003667;28;20025;-60
2023/12/16 12:15:09;;;;;;;18.35;9.27;;;7.00;99.90;;;;;;5008495;28;20064;-61
2023/12/16 12:17:36;;;;;;;12.70;8.32;;;7.00;99.90;;;;;;5007085;28;20025;-61
2023/12/16 12:20:02;;;;;;;13.20;8.70;;;7.00;99.90;;;;;;5006338;28;20080;-59
2023/12/16 12:22:28;;;;;;;10.68;7.47;;;7.00;99.90;;;;;;5008081;28;20032;-58
2023/12/16 12:24:54;;;;;;;12.70;7.72;;;7.00;99.90;;;;;;5008110;28;20038;-60
2023/12/16 12:27:20;;;;;;;17.17;7.97;;;7.00;99.90;;;;;;5006536;28;20072;-61
2023/12/16 12:29:56;;;;;;;17.67;8.25;;;7.00;99.90;;;;;;5009163;28;20057;-58
2023/12/16 12:32:26;;;;;;;13.68;7.30;;;7.10;99.90;;;;;;5007978;28;20502;-58
2023/12/16 12:35:03;;;;;;;14.63;8.13;;;7.10;99.90;;;;;;5010420;28;20893;-59
2023/12/16 12:37:39;;;;;;;12.20;7.88;;;7.00;99.90;;;;;;5005461;28;20494;-57
2023/12/16 12:40:26;;;;;;;10.20;7.65;;;7.00;99.90;;;;;;5005645;28;20445;-59
2023/12/16 12:42:51;;;;;;;;;;;7.10;99.90;;;;;;5003647;28;20675;-58
2023/12/16 12:45:29;;;;;;;11.70;7.93;;;7.00;99.90;;;;;;5008949;28;19942;-60